Carrier Princess — CZ3582 — position and weather

sailwx.info

Track history (hours):
 
Tides and Currents Weather Stations Pressure Air Temp Water Temp Dewpoint Dewpoint Depression Visibility Wind Speed Wind Dir Waves Ship Positions

Carrier Princess

Last reported at 2015-Aug-01 13:33 UTC. Time now 2015-Aug-01 13:53 UTC.
Position N 49°10' W 123°56'.

Length 112 m; draft 3 m.

Type: Cargo ship. MMSI: 316003656.

Date/timePositionNaut miles runAvg speedWind from/ knotsBaromVisibWave heightAir tempDewpointWater temp
2015-Aug-01 13:33N 49°10' W 123°56'0 0.0
2015-Aug-01 12:33N 49°10' W 123°56'0 0.0
2015-Aug-01 11:33N 49°10' W 123°56'5 5.3
2015-Aug-01 10:34N 49°13' W 123°50'1413.6
2015-Aug-01 09:33N 49°09' W 123°29'1111.4
2015-Aug-01 08:34N 49°07' W 123°12'7 6.8
2015-Aug-01 07:34N 49°09' W 123°02'0 0.1
2015-Aug-01 06:34N 49°09' W 123°02'10 9.6
2015-Aug-01 05:34N 49°07' W 123°17'1111.2
2015-Aug-01 04:33N 48°56' W 123°18'1010.3
2015-Aug-01 03:33N 48°46' W 123°22'5 4.8
2015-Aug-01 02:34N 48°41' W 123°24'0 0.1
2015-Aug-01 01:33N 48°41' W 123°24'1110.7
2015-Aug-01 00:34N 48°52' W 123°20'1312.9
2015-Jul-31 23:33N 49°04' W 123°20'1212.0
2015-Jul-31 22:33N 49°08' W 123°03'1 0.7
2015-Jul-31 21:34N 49°09' W 123°02'4 4.3
2015-Jul-31 20:33N 49°06' W 123°08'1010.1
2015-Jul-31 19:34N 49°07' W 123°23'1312.8
2015-Jul-31 18:34N 49°12' W 123°41'10 9.5
2015-Jul-31 17:33N 49°10' W 123°56'0 0.0
2015-Jul-31 16:33N 49°10' W 123°56'0 0.0
2015-Jul-31 15:33N 49°10' W 123°56'0 0.0
2015-Jul-31 14:33N 49°10' W 123°56'0 0.0
2015-Jul-31 13:33N 49°10' W 123°56'0 0.0
2015-Jul-31 12:34N 49°10' W 123°56'0 0.0
2015-Jul-31 11:33N 49°10' W 123°56'7 6.9
2015-Jul-31 10:34N 49°13' W 123°47'1212.1
2015-Jul-31 09:33N 49°09' W 123°29'1212.2
2015-Jul-31 08:33N 49°07' W 123°11'6 5.9
2015-Jul-31 07:33N 49°09' W 123°02'0 0.4
2015-Jul-31 06:33N 49°09' W 123°03'1110.8
2015-Jul-31 05:33N 49°06' W 123°19'1211.9
2015-Jul-31 04:33N 48°54' W 123°18'1111.1
2015-Jul-31 03:34N 48°44' W 123°24'2 2.4
2015-Jul-31 02:34N 48°41' W 123°24'0 0.0
2015-Jul-31 01:34N 48°41' W 123°24'1111.4
2015-Jul-31 00:34N 48°52' W 123°18'1414.0
2015-Jul-30 23:34N 49°06' W 123°19'1111.0
2015-Jul-30 22:33N 49°09' W 123°02'0 0.0
2015-Jul-30 21:33N 49°09' W 123°02'5 4.6
2015-Jul-30 20:33N 49°06' W 123°08'1110.9
2015-Jul-30 19:34N 49°07' W 123°25'1414.0
2015-Jul-30 18:33N 49°12' W 123°45'7 7.3
2015-Jul-30 17:33N 49°10' W 123°56'0 0.0
2015-Jul-30 16:33N 49°10' W 123°56'0 0.0
2015-Jul-30 15:33N 49°10' W 123°56'0 0.0
2015-Jul-30 14:33N 49°10' W 123°56'0 0.0
2015-Jul-30 13:33N 49°10' W 123°56'0 0.0
2015-Jul-30 12:33N 49°10' W 123°56'0 0.0
2015-Jul-30 11:33N 49°10' W 123°56'6 6.5
2015-Jul-30 10:34N 49°13' W 123°48'1413.8
2015-Jul-30 09:33N 49°09' W 123°28'1313.1
2015-Jul-30 08:34N 49°07' W 123°08'4 4.4
2015-Jul-30 07:34N 49°09' W 123°02'1 1.0
2015-Jul-30 06:34N 49°08' W 123°03'1111.3
2015-Jul-30 05:33N 49°05' W 123°20'1212.2
2015-Jul-30 04:33N 48°53' W 123°18'1211.5
2015-Jul-30 03:33N 48°42' W 123°24'1 0.5
2015-Jul-30 02:33N 48°41' W 123°24'0 0.1
2015-Jul-30 01:34N 48°41' W 123°24'1212.4
2015-Jul-30 00:34N 48°53' W 123°18'1414.2
2015-Jul-29 23:33N 49°07' W 123°16'9 9.3
2015-Jul-29 22:33N 49°09' W 123°02'0 0.0
2015-Jul-29 21:33N 49°09' W 123°02'5 4.8
2015-Jul-29 20:33N 49°07' W 123°09'1111.3
2015-Jul-29 19:33N 49°07' W 123°26'1212.3
2015-Jul-29 18:33N 49°12' W 123°43'9 8.6
2015-Jul-29 17:33N 49°10' W 123°56'0 0.0
2015-Jul-29 16:32N 49°10' W 123°56'0 0.0
2015-Jul-29 15:33N 49°10' W 123°56'0 0.0
2015-Jul-29 14:33N 49°10' W 123°56'0 0.0
2015-Jul-29 13:33N 49°10' W 123°56'0 0.0
2015-Jul-29 12:33N 49°10' W 123°56'0 0.0
2015-Jul-29 11:33N 49°10' W 123°56'6 5.8
2015-Jul-29 10:33N 49°13' W 123°49'1212.2
2015-Jul-29 09:33N 49°08' W 123°32'1212.5
2015-Jul-29 08:33N 49°08' W 123°13'7 7.0
2015-Jul-29 07:33N 49°09' W 123°02'0 0.2
2015-Jul-29 06:33N 49°09' W 123°02'1110.7
2015-Jul-29 05:33N 49°06' W 123°18'1212.3
2015-Jul-29 04:33N 48°54' W 123°18'1211.9
2015-Jul-29 03:33N 48°43' W 123°24'1 1.3
2015-Jul-29 02:33N 48°41' W 123°24'0 0.0
2015-Jul-29 01:33N 48°41' W 123°24'1110.8
2015-Jul-29 00:33N 48°52' W 123°19'1413.8
2015-Jul-28 23:34N 49°05' W 123°19'1111.2
2015-Jul-28 22:33N 49°08' W 123°03'1 0.6
2015-Jul-28 21:34N 49°09' W 123°02'6 5.7
2015-Jul-28 20:34N 49°07' W 123°10'1211.6
2015-Jul-28 19:33N 49°08' W 123°28'1312.7
2015-Jul-28 18:33N 49°13' W 123°46'7 7.0
2015-Jul-28 17:34N 49°10' W 123°56'0 0.0
2015-Jul-28 16:33N 49°10' W 123°56'0 0.0
2015-Jul-28 15:34N 49°10' W 123°56'0 0.0
2015-Jul-28 14:34N 49°10' W 123°56'0 0.0
2015-Jul-28 13:33N 49°10' W 123°56'0 0.0
2015-Jul-28 12:33N 49°10' W 123°56'0 0.0
2015-Jul-28 11:34N 49°10' W 123°56'5 5.5
2015-Jul-28 10:34N 49°13' W 123°49'1212.5
2015-Jul-28 09:34N 49°10' W 123°31'1212.4
2015-Jul-28 08:33N 49°07' W 123°12'7 6.8
2015-Jul-28 07:33N 49°09' W 123°02'0 0.0
2015-Jul-28 06:34N 49°09' W 123°02'10 9.9
2015-Jul-28 05:33N 49°07' W 123°17'1211.9
2015-Jul-28 04:33N 48°55' W 123°18'1211.6
2015-Jul-28 03:34N 48°44' W 123°24'3 2.6
2015-Jul-28 02:33N 48°41' W 123°24'0 0.1
2015-Jul-28 01:33N 48°41' W 123°24'1111.2
2015-Jul-28 00:33N 48°52' W 123°19'1414.3
2015-Jul-27 23:33N 49°06' W 123°18'1110.9
2015-Jul-27 22:33N 49°09' W 123°02'0 0.0
2015-Jul-27 21:33N 49°09' W 123°02'0 0.1
2015-Jul-27 20:31N 49°09' W 123°02'0 0.0
2015-Jul-27 19:31N 49°09' W 123°02'0 0.0
2015-Jul-27 18:28N 49°09' W 123°02'0 0.0
2015-Jul-27 17:28N 49°09' W 123°02'0 0.0
2015-Jul-27 16:31N 49°09' W 123°02'0 0.0
2015-Jul-27 15:31N 49°09' W 123°02'0 0.0
2015-Jul-27 14:32N 49°09' W 123°02'0 0.0
2015-Jul-27 13:31N 49°09' W 123°02'0 0.0
2015-Jul-27 12:31N 49°09' W 123°02'0 0.0
2015-Jul-27 11:32N 49°09' W 123°02'0 0.0
2015-Jul-27 10:31N 49°09' W 123°02'0 0.0
2015-Jul-27 09:31N 49°09' W 123°02'0 0.0
2015-Jul-27 08:31N 49°09' W 123°02'0 0.0
2015-Jul-27 07:31N 49°09' W 123°02'0 0.0
2015-Jul-27 06:31N 49°09' W 123°02'0 0.0
2015-Jul-27 05:31N 49°09' W 123°02'0 0.0
2015-Jul-27 04:31N 49°09' W 123°02'0 0.0
2015-Jul-27 03:31N 49°09' W 123°02'0 0.0
2015-Jul-27 02:31N 49°09' W 123°02'0 0.0
2015-Jul-27 01:31N 49°09' W 123°02'0 0.0
2015-Jul-27 00:31N 49°09' W 123°02'0 0.0
2015-Jul-26 23:31N 49°09' W 123°02'0 0.0
2015-Jul-26 22:32N 49°09' W 123°02'0 0.0
2015-Jul-26 21:31N 49°09' W 123°02'0 0.0
2015-Jul-26 20:31N 49°09' W 123°02'0 0.0
2015-Jul-26 19:31N 49°09' W 123°02'0 0.0
2015-Jul-26 18:32N 49°09' W 123°02'0 0.0
2015-Jul-26 17:31N 49°09' W 123°02'0 0.0
2015-Jul-26 16:31N 49°09' W 123°02'0 0.0
2015-Jul-26 15:31N 49°09' W 123°02'1 0.9
2015-Jul-26 14:33N 49°08' W 123°03'7 7.4
2015-Jul-26 13:33N 49°08' W 123°14'9 9.3
2015-Jul-26 12:33N 49°08' W 123°29'1211.8
2015-Jul-26 11:33N 49°12' W 123°45'7 7.2
2015-Jul-26 10:33N 49°10' W 123°56'0 0.0
2015-Jul-26 09:33N 49°10' W 123°56'2 1.9
2015-Jul-26 08:33N 49°11' W 123°54'1110.4
2015-Jul-26 07:33N 49°11' W 123°38'1111.4
2015-Jul-26 06:33N 49°07' W 123°22'1111.3
2015-Jul-26 05:33N 49°07' W 123°04'2 2.0
2015-Jul-26 04:33N 49°09' W 123°02'0 0.0
2015-Jul-26 03:33N 49°09' W 123°02'0 0.0
2015-Jul-26 02:33N 49°09' W 123°02'0 0.0
2015-Jul-26 01:33N 49°09' W 123°02'0 0.0
2015-Jul-26 00:33N 49°09' W 123°02'0 0.0
2015-Jul-25 23:33N 49°09' W 123°02'4 4.1
2015-Jul-25 22:33N 49°07' W 123°07'10 9.8
2015-Jul-25 21:33N 49°07' W 123°22'1212.3
2015-Jul-25 20:33N 49°12' W 123°40'10 9.7
2015-Jul-25 19:33N 49°10' W 123°55'1 0.8
2015-Jul-25 18:33N 49°10' W 123°56'0 0.0
2015-Jul-25 17:33N 49°10' W 123°56'0 0.0
2015-Jul-25 16:33N 49°10' W 123°56'0 0.0
2015-Jul-25 15:33N 49°10' W 123°56'0 0.0
2015-Jul-25 14:33N 49°10' W 123°56'0 0.0
2015-Jul-25 13:33N 49°10' W 123°56'0 0.0
2015-Jul-25 12:33N 49°10' W 123°56'0 0.0
2015-Jul-25 11:33N 49°10' W 123°56'6 5.6
2015-Jul-25 10:33N 49°13' W 123°49'1413.6
2015-Jul-25 09:34N 49°09' W 123°29'1413.6
2015-Jul-25 08:33N 49°07' W 123°09'5 4.7
2015-Jul-25 07:33N 49°09' W 123°02'0 0.2
2015-Jul-25 06:33N 49°09' W 123°02'1010.2
2015-Jul-25 05:33N 49°06' W 123°18'1211.8
2015-Jul-25 04:34N 48°55' W 123°18'1111.1
2015-Jul-25 03:33N 48°44' W 123°23'3 2.8
2015-Jul-25 02:33N 48°41' W 123°24'0 0.0
2015-Jul-25 01:33N 48°41' W 123°24'1110.8
2015-Jul-25 00:33N 48°52' W 123°19'1313.0
2015-Jul-24 23:33N 49°05' W 123°20'1212.4
2015-Jul-24 22:34N 49°09' W 123°02'0 0.0
2015-Jul-24 21:33N 49°09' W 123°02'6 6.0
2015-Jul-24 20:33N 49°07' W 123°11'1110.7
2015-Jul-24 19:33N 49°08' W 123°27'1312.6
2015-Jul-24 18:33N 49°13' W 123°45'8 7.5
2015-Jul-24 17:33N 49°10' W 123°56'0 0.0
2015-Jul-24 16:33N 49°10' W 123°56'0 0.0
2015-Jul-24 15:33N 49°10' W 123°56'0 0.0
2015-Jul-24 14:33N 49°10' W 123°56'0 0.0
2015-Jul-24 13:33N 49°10' W 123°56'0 0.0
2015-Jul-24 12:33N 49°10' W 123°56'0 0.0
2015-Jul-24 11:33N 49°10' W 123°56'4 4.4
2015-Jul-24 10:33N 49°13' W 123°51'1514.5
2015-Jul-24 09:33N 49°09' W 123°29'1313.3
2015-Jul-24 08:33N 49°07' W 123°09'5 5.3
2015-Jul-24 07:33N 49°09' W 123°02'0 0.2
2015-Jul-24 06:33N 49°09' W 123°02'9 9.2
2015-Jul-24 05:33N 49°07' W 123°16'1010.3
2015-Jul-24 04:33N 48°57' W 123°18'1212.3
2015-Jul-24 03:34N 48°45' W 123°23'4 3.7
2015-Jul-24 02:33N 48°41' W 123°24'0 0.0
2015-Jul-24 01:34N 48°41' W 123°24'1010.4
2015-Jul-24 00:33N 48°51' W 123°21'1313.3
2015-Jul-23 23:33N 49°05' W 123°20'1211.9
2015-Jul-23 22:34N 49°09' W 123°02'0 0.1
2015-Jul-23 21:33N 49°09' W 123°02'4 3.6
2015-Jul-23 20:33N 49°07' W 123°07'10 9.6
2015-Jul-23 19:33N 49°06' W 123°21'1313.2
2015-Jul-23 18:33N 49°11' W 123°40'1010.1
2015-Jul-23 17:33N 49°10' W 123°56'0 0.0
2015-Jul-23 16:33N 49°10' W 123°56'0 0.0
2015-Jul-23 15:33N 49°10' W 123°56'0 0.0
2015-Jul-23 14:33N 49°10' W 123°56'0 0.0
2015-Jul-23 13:33N 49°10' W 123°56'0 0.0
2015-Jul-23 12:33N 49°10' W 123°56'0 0.0
2015-Jul-23 11:33N 49°10' W 123°56'5 5.0
2015-Jul-23 10:33N 49°13' W 123°50'1313.2
2015-Jul-23 09:34N 49°09' W 123°30'1313.2
2015-Jul-23 08:34N 49°07' W 123°11'6 5.9
2015-Jul-23 07:34N 49°09' W 123°02'0 0.4
2015-Jul-23 06:34N 49°09' W 123°03'1010.4
2015-Jul-23 05:33N 49°06' W 123°18'1211.9
2015-Jul-23 04:33N 48°54' W 123°18'1413.5
2015-Jul-23 03:33N 48°41' W 123°24'0 0.1
2015-Jul-23 02:33N 48°41' W 123°24'1 1.3
2015-Jul-23 01:34N 48°42' W 123°23'1515.2
2015-Jul-23 00:33N 48°57' W 123°18'1212.2
2015-Jul-22 23:33N 49°07' W 123°07'4 4.0
2015-Jul-22 22:33N 49°09' W 123°02'5 5.0
2015-Jul-22 21:33N 49°07' W 123°09'1514.8
2015-Jul-22 20:33N 49°09' W 123°32'1615.7
2015-Jul-22 19:33N 49°10' W 123°55'0 0.2
2015-Jul-22 18:33N 49°10' W 123°56'2 2.4
2015-Jul-22 17:33N 49°12' W 123°53'1616.1
2015-Jul-22 16:33N 49°09' W 123°29'1615.6
2015-Jul-22 15:33N 49°07' W 123°05'3 2.6
2015-Jul-22 14:34N 49°09' W 123°02'4 3.7
2015-Jul-22 13:34N 49°07' W 123°07'  
Track history (hours):
 
Tides and Currents Weather Stations Pressure Air Temp Water Temp Dewpoint Dewpoint Depression Visibility Wind Speed Wind Dir Waves Ship Positions

Carrier Princess

Last reported at 2015-Aug-01 13:33 UTC. Time now 2015-Aug-01 13:53 UTC.
Position N 49°10' W 123°56'.

Length 112 m; draft 3 m.

Type: Cargo ship. MMSI: 316003656.

Date/timePositionNaut miles runAvg speedWind from/ knotsBaromVisibWave heightAir tempDewpointWater temp
2015-Aug-01 13:33N 49°10' W 123°56'0 0.0
2015-Aug-01 12:33N 49°10' W 123°56'0 0.0
2015-Aug-01 11:33N 49°10' W 123°56'5 5.3
2015-Aug-01 10:34N 49°13' W 123°50'1413.6
2015-Aug-01 09:33N 49°09' W 123°29'1111.4
2015-Aug-01 08:34N 49°07' W 123°12'7 6.8
2015-Aug-01 07:34N 49°09' W 123°02'0 0.1
2015-Aug-01 06:34N 49°09' W 123°02'10 9.6
2015-Aug-01 05:34N 49°07' W 123°17'1111.2
2015-Aug-01 04:33N 48°56' W 123°18'1010.3
2015-Aug-01 03:33N 48°46' W 123°22'5 4.8
2015-Aug-01 02:34N 48°41' W 123°24'0 0.1
2015-Aug-01 01:33N 48°41' W 123°24'1110.7
2015-Aug-01 00:34N 48°52' W 123°20'1312.9
2015-Jul-31 23:33N 49°04' W 123°20'1212.0
2015-Jul-31 22:33N 49°08' W 123°03'1 0.7
2015-Jul-31 21:34N 49°09' W 123°02'4 4.3
2015-Jul-31 20:33N 49°06' W 123°08'1010.1
2015-Jul-31 19:34N 49°07' W 123°23'1312.8
2015-Jul-31 18:34N 49°12' W 123°41'10 9.5
2015-Jul-31 17:33N 49°10' W 123°56'0 0.0
2015-Jul-31 16:33N 49°10' W 123°56'0 0.0
2015-Jul-31 15:33N 49°10' W 123°56'0 0.0
2015-Jul-31 14:33N 49°10' W 123°56'0 0.0
2015-Jul-31 13:33N 49°10' W 123°56'0 0.0
2015-Jul-31 12:34N 49°10' W 123°56'0 0.0
2015-Jul-31 11:33N 49°10' W 123°56'7 6.9
2015-Jul-31 10:34N 49°13' W 123°47'1212.1
2015-Jul-31 09:33N 49°09' W 123°29'1212.2
2015-Jul-31 08:33N 49°07' W 123°11'6 5.9
2015-Jul-31 07:33N 49°09' W 123°02'0 0.4
2015-Jul-31 06:33N 49°09' W 123°03'1110.8
2015-Jul-31 05:33N 49°06' W 123°19'1211.9
2015-Jul-31 04:33N 48°54' W 123°18'1111.1
2015-Jul-31 03:34N 48°44' W 123°24'2 2.4
2015-Jul-31 02:34N 48°41' W 123°24'0 0.0
2015-Jul-31 01:34N 48°41' W 123°24'1111.4
2015-Jul-31 00:34N 48°52' W 123°18'1414.0
2015-Jul-30 23:34N 49°06' W 123°19'1111.0
2015-Jul-30 22:33N 49°09' W 123°02'0 0.0
2015-Jul-30 21:33N 49°09' W 123°02'5 4.6
2015-Jul-30 20:33N 49°06' W 123°08'1110.9
2015-Jul-30 19:34N 49°07' W 123°25'1414.0
2015-Jul-30 18:33N 49°12' W 123°45'7 7.3
2015-Jul-30 17:33N 49°10' W 123°56'0 0.0
2015-Jul-30 16:33N 49°10' W 123°56'0 0.0
2015-Jul-30 15:33N 49°10' W 123°56'0 0.0
2015-Jul-30 14:33N 49°10' W 123°56'0 0.0
2015-Jul-30 13:33N 49°10' W 123°56'0 0.0
2015-Jul-30 12:33N 49°10' W 123°56'0 0.0
2015-Jul-30 11:33N 49°10' W 123°56'6 6.5
2015-Jul-30 10:34N 49°13' W 123°48'1413.8
2015-Jul-30 09:33N 49°09' W 123°28'1313.1
2015-Jul-30 08:34N 49°07' W 123°08'4 4.4
2015-Jul-30 07:34N 49°09' W 123°02'1 1.0
2015-Jul-30 06:34N 49°08' W 123°03'1111.3
2015-Jul-30 05:33N 49°05' W 123°20'1212.2
2015-Jul-30 04:33N 48°53' W 123°18'1211.5
2015-Jul-30 03:33N 48°42' W 123°24'1 0.5
2015-Jul-30 02:33N 48°41' W 123°24'0 0.1
2015-Jul-30 01:34N 48°41' W 123°24'1212.4
2015-Jul-30 00:34N 48°53' W 123°18'1414.2
2015-Jul-29 23:33N 49°07' W 123°16'9 9.3
2015-Jul-29 22:33N 49°09' W 123°02'0 0.0
2015-Jul-29 21:33N 49°09' W 123°02'5 4.8
2015-Jul-29 20:33N 49°07' W 123°09'1111.3
2015-Jul-29 19:33N 49°07' W 123°26'1212.3
2015-Jul-29 18:33N 49°12' W 123°43'9 8.6
2015-Jul-29 17:33N 49°10' W 123°56'0 0.0
2015-Jul-29 16:32N 49°10' W 123°56'0 0.0
2015-Jul-29 15:33N 49°10' W 123°56'0 0.0
2015-Jul-29 14:33N 49°10' W 123°56'0 0.0
2015-Jul-29 13:33N 49°10' W 123°56'0 0.0
2015-Jul-29 12:33N 49°10' W 123°56'0 0.0
2015-Jul-29 11:33N 49°10' W 123°56'6 5.8
2015-Jul-29 10:33N 49°13' W 123°49'1212.2
2015-Jul-29 09:33N 49°08' W 123°32'1212.5
2015-Jul-29 08:33N 49°08' W 123°13'7 7.0
2015-Jul-29 07:33N 49°09' W 123°02'0 0.2
2015-Jul-29 06:33N 49°09' W 123°02'1110.7
2015-Jul-29 05:33N 49°06' W 123°18'1212.3
2015-Jul-29 04:33N 48°54' W 123°18'1211.9
2015-Jul-29 03:33N 48°43' W 123°24'1 1.3
2015-Jul-29 02:33N 48°41' W 123°24'0 0.0
2015-Jul-29 01:33N 48°41' W 123°24'1110.8
2015-Jul-29 00:33N 48°52' W 123°19'1413.8
2015-Jul-28 23:34N 49°05' W 123°19'1111.2
2015-Jul-28 22:33N 49°08' W 123°03'1 0.6
2015-Jul-28 21:34N 49°09' W 123°02'6 5.7
2015-Jul-28 20:34N 49°07' W 123°10'1211.6
2015-Jul-28 19:33N 49°08' W 123°28'1312.7
2015-Jul-28 18:33N 49°13' W 123°46'7 7.0
2015-Jul-28 17:34N 49°10' W 123°56'0 0.0
2015-Jul-28 16:33N 49°10' W 123°56'0 0.0
2015-Jul-28 15:34N 49°10' W 123°56'0 0.0
2015-Jul-28 14:34N 49°10' W 123°56'0 0.0
2015-Jul-28 13:33N 49°10' W 123°56'0 0.0
2015-Jul-28 12:33N 49°10' W 123°56'0 0.0
2015-Jul-28 11:34N 49°10' W 123°56'5 5.5
2015-Jul-28 10:34N 49°13' W 123°49'1212.5
2015-Jul-28 09:34N 49°10' W 123°31'1212.4
2015-Jul-28 08:33N 49°07' W 123°12'7 6.8
2015-Jul-28 07:33N 49°09' W 123°02'0 0.0
2015-Jul-28 06:34N 49°09' W 123°02'10 9.9
2015-Jul-28 05:33N 49°07' W 123°17'1211.9
2015-Jul-28 04:33N 48°55' W 123°18'1211.6
2015-Jul-28 03:34N 48°44' W 123°24'3 2.6
2015-Jul-28 02:33N 48°41' W 123°24'0 0.1
2015-Jul-28 01:33N 48°41' W 123°24'1111.2
2015-Jul-28 00:33N 48°52' W 123°19'1414.3
2015-Jul-27 23:33N 49°06' W 123°18'1110.9
2015-Jul-27 22:33N 49°09' W 123°02'0 0.0
2015-Jul-27 21:33N 49°09' W 123°02'0 0.1
2015-Jul-27 20:31N 49°09' W 123°02'0 0.0
2015-Jul-27 19:31N 49°09' W 123°02'0 0.0
2015-Jul-27 18:28N 49°09' W 123°02'0 0.0
2015-Jul-27 17:28N 49°09' W 123°02'0 0.0
2015-Jul-27 16:31N 49°09' W 123°02'0 0.0
2015-Jul-27 15:31N 49°09' W 123°02'0 0.0
2015-Jul-27 14:32N 49°09' W 123°02'0 0.0
2015-Jul-27 13:31N 49°09' W 123°02'0 0.0
2015-Jul-27 12:31N 49°09' W 123°02'0 0.0
2015-Jul-27 11:32N 49°09' W 123°02'0 0.0
2015-Jul-27 10:31N 49°09' W 123°02'0 0.0
2015-Jul-27 09:31N 49°09' W 123°02'0 0.0
2015-Jul-27 08:31N 49°09' W 123°02'0 0.0
2015-Jul-27 07:31N 49°09' W 123°02'0 0.0
2015-Jul-27 06:31N 49°09' W 123°02'0 0.0
2015-Jul-27 05:31N 49°09' W 123°02'0 0.0
2015-Jul-27 04:31N 49°09' W 123°02'0 0.0
2015-Jul-27 03:31N 49°09' W 123°02'0 0.0
2015-Jul-27 02:31N 49°09' W 123°02'0 0.0
2015-Jul-27 01:31N 49°09' W 123°02'0 0.0
2015-Jul-27 00:31N 49°09' W 123°02'0 0.0
2015-Jul-26 23:31N 49°09' W 123°02'0 0.0
2015-Jul-26 22:32N 49°09' W 123°02'0 0.0
2015-Jul-26 21:31N 49°09' W 123°02'0 0.0
2015-Jul-26 20:31N 49°09' W 123°02'0 0.0
2015-Jul-26 19:31N 49°09' W 123°02'0 0.0
2015-Jul-26 18:32N 49°09' W 123°02'0 0.0
2015-Jul-26 17:31N 49°09' W 123°02'0 0.0
2015-Jul-26 16:31N 49°09' W 123°02'0 0.0
2015-Jul-26 15:31N 49°09' W 123°02'1 0.9
2015-Jul-26 14:33N 49°08' W 123°03'7 7.4
2015-Jul-26 13:33N 49°08' W 123°14'9 9.3
2015-Jul-26 12:33N 49°08' W 123°29'1211.8
2015-Jul-26 11:33N 49°12' W 123°45'7 7.2
2015-Jul-26 10:33N 49°10' W 123°56'0 0.0
2015-Jul-26 09:33N 49°10' W 123°56'2 1.9
2015-Jul-26 08:33N 49°11' W 123°54'1110.4
2015-Jul-26 07:33N 49°11' W 123°38'1111.4
2015-Jul-26 06:33N 49°07' W 123°22'1111.3
2015-Jul-26 05:33N 49°07' W 123°04'2 2.0
2015-Jul-26 04:33N 49°09' W 123°02'0 0.0
2015-Jul-26 03:33N 49°09' W 123°02'0 0.0
2015-Jul-26 02:33N 49°09' W 123°02'0 0.0
2015-Jul-26 01:33N 49°09' W 123°02'0 0.0
2015-Jul-26 00:33N 49°09' W 123°02'0 0.0
2015-Jul-25 23:33N 49°09' W 123°02'4 4.1
2015-Jul-25 22:33N 49°07' W 123°07'10 9.8
2015-Jul-25 21:33N 49°07' W 123°22'1212.3
2015-Jul-25 20:33N 49°12' W 123°40'10 9.7
2015-Jul-25 19:33N 49°10' W 123°55'1 0.8
2015-Jul-25 18:33N 49°10' W 123°56'0 0.0
2015-Jul-25 17:33N 49°10' W 123°56'0 0.0
2015-Jul-25 16:33N 49°10' W 123°56'0 0.0
2015-Jul-25 15:33N 49°10' W 123°56'0 0.0
2015-Jul-25 14:33N 49°10' W 123°56'0 0.0
2015-Jul-25 13:33N 49°10' W 123°56'0 0.0
2015-Jul-25 12:33N 49°10' W 123°56'0 0.0
2015-Jul-25 11:33N 49°10' W 123°56'6 5.6
2015-Jul-25 10:33N 49°13' W 123°49'1413.6
2015-Jul-25 09:34N 49°09' W 123°29'1413.6
2015-Jul-25 08:33N 49°07' W 123°09'5 4.7
2015-Jul-25 07:33N 49°09' W 123°02'0 0.2
2015-Jul-25 06:33N 49°09' W 123°02'1010.2
2015-Jul-25 05:33N 49°06' W 123°18'1211.8
2015-Jul-25 04:34N 48°55' W 123°18'1111.1
2015-Jul-25 03:33N 48°44' W 123°23'3 2.8
2015-Jul-25 02:33N 48°41' W 123°24'0 0.0
2015-Jul-25 01:33N 48°41' W 123°24'1110.8
2015-Jul-25 00:33N 48°52' W 123°19'1313.0
2015-Jul-24 23:33N 49°05' W 123°20'1212.4
2015-Jul-24 22:34N 49°09' W 123°02'0 0.0
2015-Jul-24 21:33N 49°09' W 123°02'6 6.0
2015-Jul-24 20:33N 49°07' W 123°11'1110.7
2015-Jul-24 19:33N 49°08' W 123°27'1312.6
2015-Jul-24 18:33N 49°13' W 123°45'8 7.5
2015-Jul-24 17:33N 49°10' W 123°56'0 0.0
2015-Jul-24 16:33N 49°10' W 123°56'0 0.0
2015-Jul-24 15:33N 49°10' W 123°56'0 0.0
2015-Jul-24 14:33N 49°10' W 123°56'0 0.0
2015-Jul-24 13:33N 49°10' W 123°56'0 0.0
2015-Jul-24 12:33N 49°10' W 123°56'0 0.0
2015-Jul-24 11:33N 49°10' W 123°56'4 4.4
2015-Jul-24 10:33N 49°13' W 123°51'1514.5
2015-Jul-24 09:33N 49°09' W 123°29'1313.3
2015-Jul-24 08:33N 49°07' W 123°09'5 5.3
2015-Jul-24 07:33N 49°09' W 123°02'0 0.2
2015-Jul-24 06:33N 49°09' W 123°02'9 9.2
2015-Jul-24 05:33N 49°07' W 123°16'1010.3
2015-Jul-24 04:33N 48°57' W 123°18'1212.3
2015-Jul-24 03:34N 48°45' W 123°23'4 3.7
2015-Jul-24 02:33N 48°41' W 123°24'0 0.0
2015-Jul-24 01:34N 48°41' W 123°24'1010.4
2015-Jul-24 00:33N 48°51' W 123°21'1313.3
2015-Jul-23 23:33N 49°05' W 123°20'1211.9
2015-Jul-23 22:34N 49°09' W 123°02'0 0.1
2015-Jul-23 21:33N 49°09' W 123°02'4 3.6
2015-Jul-23 20:33N 49°07' W 123°07'10 9.6
2015-Jul-23 19:33N 49°06' W 123°21'1313.2
2015-Jul-23 18:33N 49°11' W 123°40'1010.1
2015-Jul-23 17:33N 49°10' W 123°56'0 0.0
2015-Jul-23 16:33N 49°10' W 123°56'0 0.0
2015-Jul-23 15:33N 49°10' W 123°56'0 0.0
2015-Jul-23 14:33N 49°10' W 123°56'0 0.0
2015-Jul-23 13:33N 49°10' W 123°56'0 0.0
2015-Jul-23 12:33N 49°10' W 123°56'0 0.0
2015-Jul-23 11:33N 49°10' W 123°56'5 5.0
2015-Jul-23 10:33N 49°13' W 123°50'1313.2
2015-Jul-23 09:34N 49°09' W 123°30'1313.2
2015-Jul-23 08:34N 49°07' W 123°11'6 5.9
2015-Jul-23 07:34N 49°09' W 123°02'0 0.4
2015-Jul-23 06:34N 49°09' W 123°03'1010.4
2015-Jul-23 05:33N 49°06' W 123°18'1211.9
2015-Jul-23 04:33N 48°54' W 123°18'1413.5
2015-Jul-23 03:33N 48°41' W 123°24'0 0.1
2015-Jul-23 02:33N 48°41' W 123°24'1 1.3
2015-Jul-23 01:34N 48°42' W 123°23'1515.2
2015-Jul-23 00:33N 48°57' W 123°18'1212.2
2015-Jul-22 23:33N 49°07' W 123°07'4 4.0
2015-Jul-22 22:33N 49°09' W 123°02'5 5.0
2015-Jul-22 21:33N 49°07' W 123°09'1514.8
2015-Jul-22 20:33N 49°09' W 123°32'1615.7
2015-Jul-22 19:33N 49°10' W 123°55'0 0.2
2015-Jul-22 18:33N 49°10' W 123°56'2 2.4
2015-Jul-22 17:33N 49°12' W 123°53'1616.1
2015-Jul-22 16:33N 49°09' W 123°29'1615.6
2015-Jul-22 15:33N 49°07' W 123°05'3 2.6
2015-Jul-22 14:34N 49°09' W 123°02'4 3.7
2015-Jul-22 13:34N 49°07' W 123°07'  

Dump ship's entire track history